Bogue, Kansas
Current Conditions -  °F | °C
As of 9:53 AM on Monday 26 Jan 2015 (Local Time) from KHLC Reporting Station
Clear Clear  
Wind Chill: 53°   Ceiling: Unl
Heat Index: 53°   Visibility: 10mi
Dew Point: 32°   Wind: 17mph
Humidity: 45%   Direction: 310°NW
Pressure: 30.08"   Gusts: 26mph
Location:  39.36°N, 99.69°W
Report Text: KHLC 261553Z AUTO 31015G23KT 10SM CLR 12/00 A3008 RMK AO2 SLP195 T01170000
Loading
Personal Weather Stations






























Interactive Weather Map New forecast layout! Learn more

10-Day Weather Forecast

Advertisements
Track Severe Weather on mobile